createdAt,value
2019-05-14T03:02:49.362Z,8.98
2019-05-14T03:05:20.249Z,8.18
2019-05-14T03:07:51.442Z,9.50
2019-05-14T03:10:22.534Z,7.85
2019-05-14T03:12:53.733Z,8.15
2019-05-14T03:15:24.916Z,6.58
2019-05-14T03:17:56.115Z,8.73
2019-05-14T03:20:28.915Z,8.05
2019-05-14T03:23:07.956Z,7.75
2019-05-14T03:25:33.573Z,7.47
2019-05-14T03:28:04.714Z,7.33
2019-05-14T03:30:35.907Z,6.28
2019-05-14T03:33:12.672Z,9.23
2019-05-14T03:35:44.204Z,10.95
2019-05-14T03:38:12.810Z,7.33
2019-05-14T03:40:43.975Z,6.30
2019-05-14T03:43:15.091Z,5.85
2019-05-14T03:45:49.277Z,5.67
2019-05-14T03:48:19.464Z,7.60
2019-05-14T03:50:50.726Z,6.62
2019-05-14T03:53:21.917Z,6.40
2019-05-14T03:55:53.020Z,6.20
2019-05-14T03:58:24.146Z,7.50
2019-05-14T04:01:01.210Z,9.13
2019-05-14T04:03:32.889Z,6.47
2019-05-14T04:06:04.057Z,6.22
2019-05-14T04:08:35.248Z,6.80
2019-05-14T04:11:09.344Z,7.30
2019-05-14T04:13:40.833Z,6.92
2019-05-14T04:16:15.403Z,7.28
2019-05-14T04:18:50.039Z,9.63
2019-05-14T04:21:21.683Z,5.72
2019-05-14T04:23:52.881Z,8.30
2019-05-14T04:26:24.072Z,9.15
2019-05-14T04:28:55.591Z,10.18
2019-05-14T04:31:29.681Z,6.62
2019-05-14T04:34:01.768Z,8.68
2019-05-14T04:36:34.055Z,16.02
2019-05-14T04:39:09.518Z,25.08
2019-05-14T04:41:40.432Z,21.10
2019-05-14T04:44:11.587Z,20.25
2019-05-14T04:46:42.818Z,16.65
2019-05-14T04:49:13.927Z,17.05
2019-05-14T04:51:45.186Z,30.75
2019-05-14T04:54:19.421Z,62.55
2019-05-14T04:56:50.849Z,39.70
2019-05-14T04:59:22.224Z,25.08
2019-05-14T05:01:53.424Z,21.50
2019-05-14T05:04:24.554Z,20.97
2019-05-14T05:06:59.018Z,20.35
2019-05-14T05:09:29.465Z,19.57
2019-05-14T05:12:00.844Z,17.07
2019-05-14T05:14:33.042Z,46.50
2019-05-14T05:17:04.186Z,48.20
2019-05-14T05:19:35.238Z,61.45
2019-05-14T05:22:08.064Z,55.60
2019-05-14T05:24:39.494Z,76.37
2019-05-14T05:27:10.666Z,72.82
2019-05-14T05:29:58.999Z,70.22
2019-05-14T05:32:30.384Z,65.05
2019-05-14T05:35:01.487Z,54.73
2019-05-14T05:37:33.734Z,49.23
2019-05-14T05:40:05.438Z,47.40
2019-05-14T05:42:38.565Z,104.67
2019-05-14T05:45:09.936Z,133.85
2019-05-14T05:47:54.352Z,131.10
2019-05-14T05:50:33.384Z,103.72
2019-05-14T05:53:04.601Z,69.58
2019-05-14T05:55:35.789Z,67.85
2019-05-14T05:58:08.691Z,97.02
2019-05-14T06:00:40.740Z,110.95
2019-05-14T06:03:13.032Z,88.90
2019-05-14T06:05:44.259Z,77.17
2019-05-14T06:08:15.417Z,52.17
2019-05-14T06:10:48.778Z,24.52
2019-05-14T06:13:19.343Z,16.97
2019-05-14T06:15:52.218Z,12.55
2019-05-14T06:18:23.278Z,13.22
2019-05-14T06:21:09.205Z,10.65
2019-05-14T06:23:40.020Z,12.30
2019-05-14T06:26:12.886Z,11.15
2019-05-14T06:28:44.123Z,10.78
2019-05-14T06:31:19.232Z,11.55
2019-05-14T06:33:50.920Z,10.55
2019-05-14T06:36:22.203Z,10.38
2019-05-14T06:38:53.447Z,9.10
2019-05-14T06:41:24.807Z,9.48
2019-05-14T06:43:56.043Z,8.65
2019-05-14T06:46:28.414Z,7.60
2019-05-14T06:49:00.138Z,9.23
2019-05-14T06:51:31.386Z,8.93
2019-05-14T06:54:02.729Z,9.00
2019-05-14T06:56:33.941Z,7.53
2019-05-14T06:59:05.210Z,7.75
2019-05-14T07:01:38.451Z,8.95
2019-05-14T07:07:40.489Z,9.20
2019-05-14T07:10:12.512Z,6.50
2019-05-14T07:19:09.290Z,10.40
2019-05-14T07:21:40.076Z,11.10
2019-05-14T07:24:11.267Z,7.35
2019-05-14T07:26:42.620Z,14.45
2019-05-14T07:29:18.698Z,27.67
2019-05-14T07:31:50.136Z,26.20
2019-05-14T07:34:21.398Z,14.63
2019-05-14T07:36:52.666Z,13.22
2019-05-14T07:39:23.880Z,14.33
2019-05-14T07:41:55.195Z,20.20
2019-05-14T07:44:29.452Z,18.25
2019-05-14T07:47:00.499Z,9.15
2019-05-14T07:49:31.717Z,10.55
2019-05-14T07:52:02.980Z,8.78
2019-05-14T07:54:34.071Z,10.25
2019-05-14T07:57:05.224Z,8.15
2019-05-14T07:59:38.109Z,9.25
2019-05-14T08:02:09.493Z,10.08
2019-05-14T08:04:40.752Z,8.65
2019-05-14T08:07:12.191Z,7.10
2019-05-14T08:09:43.367Z,8.95
2019-05-14T08:12:18.600Z,7.45
2019-05-14T08:15:08.527Z,8.63
2019-05-14T08:17:20.723Z,7.95
2019-05-14T08:19:51.927Z,11.22
2019-05-14T08:22:23.239Z,18.60
2019-05-14T08:24:54.373Z,13.30
2019-05-14T08:27:27.982Z,10.53
2019-05-14T08:29:58.963Z,8.50
2019-05-14T08:32:30.450Z,13.25
2019-05-14T08:35:01.784Z,9.33
2019-05-14T08:37:32.988Z,10.60
2019-05-14T08:40:06.385Z,10.08
2019-05-14T08:42:38.317Z,13.28
2019-05-14T08:45:13.685Z,12.60
2019-05-14T08:47:42.669Z,11.20
2019-05-14T08:50:13.775Z,11.83
2019-05-14T08:52:44.919Z,14.13
2019-05-14T08:55:18.306Z,12.45
2019-05-14T08:57:49.206Z,17.60
2019-05-14T09:00:20.767Z,11.78
2019-05-14T09:02:52.049Z,13.08
2019-05-14T09:05:23.158Z,11.55
2019-05-14T09:07:54.368Z,9.38
2019-05-14T09:10:28.391Z,9.88
2019-05-14T09:12:58.438Z,9.63
2019-05-14T09:15:29.784Z,9.18
2019-05-14T09:18:03.372Z,9.48
2019-05-14T09:20:33.590Z,9.00
2019-05-14T09:23:04.875Z,9.43
2019-05-14T09:25:45.387Z,10.95
2019-05-14T09:28:09.128Z,23.70
2019-05-14T09:30:40.403Z,14.93
2019-05-14T09:33:11.745Z,15.65
2019-05-14T09:35:42.929Z,12.33
2019-05-14T09:38:14.082Z,10.45
2019-05-14T09:41:06.943Z,11.35
2019-05-14T09:43:24.962Z,10.63
2019-05-14T09:45:56.093Z,8.50
2019-05-14T09:48:28.606Z,8.93
2019-05-14T09:50:59.740Z,8.85
2019-05-14T09:53:30.861Z,8.70
2019-05-14T09:56:02.053Z,8.75
2019-05-14T09:58:33.169Z,7.10
2019-05-14T10:01:04.196Z,8.23
2019-05-14T10:03:35.261Z,10.55
2019-05-14T10:06:09.464Z,13.95
2019-05-14T10:08:39.315Z,10.38
2019-05-14T10:11:10.502Z,11.43
2019-05-14T10:13:41.726Z,8.00
2019-05-14T10:16:12.829Z,7.62
2019-05-14T10:18:43.955Z,9.50
2019-05-14T10:21:15.050Z,7.75
2019-05-14T10:23:47.256Z,9.75
2019-05-14T10:26:18.764Z,9.20
2019-05-14T10:28:50.079Z,13.55
2019-05-14T10:31:34.273Z,12.00
2019-05-14T10:34:05.415Z,7.62
2019-05-14T10:36:36.451Z,7.47
2019-05-14T10:39:09.348Z,7.10
2019-05-14T10:41:41.736Z,7.80
2019-05-14T10:44:12.893Z,14.40
2019-05-14T10:46:43.992Z,9.43
2019-05-14T10:49:22.628Z,10.68
2019-05-14T10:51:48.059Z,9.50
2019-05-14T10:54:25.237Z,11.93
2019-05-14T10:56:52.262Z,8.43
2019-05-14T10:59:23.312Z,8.03
2019-05-14T11:01:54.350Z,7.67
2019-05-14T11:04:28.420Z,10.38
2019-05-14T11:06:58.334Z,7.55
2019-05-14T11:09:29.462Z,6.58
2019-05-14T11:12:00.484Z,6.42
2019-05-14T11:14:32.055Z,8.38
2019-05-14T11:17:03.247Z,12.13
2019-05-14T11:19:34.409Z,9.10
2019-05-14T11:22:05.445Z,9.38
2019-05-14T11:24:38.527Z,11.43
2019-05-14T11:27:09.453Z,13.18
2019-05-14T11:29:40.617Z,14.30
2019-05-14T11:32:11.861Z,17.07
2019-05-14T11:34:43.060Z,15.50
2019-05-14T11:37:14.298Z,14.98
2019-05-14T11:39:45.378Z,19.73
2019-05-14T11:42:16.365Z,59.63
2019-05-14T11:45:00.234Z,31.10
2019-05-14T11:47:31.370Z,18.23
2019-05-14T11:50:02.715Z,11.85
2019-05-14T11:52:33.850Z,11.83
2019-05-14T11:55:06.052Z,12.30
2019-05-14T11:57:37.176Z,12.30
2019-05-14T12:00:11.984Z,9.03
2019-05-14T12:02:43.093Z,11.30
2019-05-14T12:05:15.533Z,10.32
2019-05-14T12:07:46.669Z,9.43
2019-05-14T12:10:18.822Z,8.28
2019-05-14T12:12:50.219Z,7.35
2019-05-14T12:15:21.296Z,6.85
2019-05-14T12:17:52.387Z,7.67
2019-05-14T12:20:23.634Z,7.97
2019-05-14T12:22:54.736Z,6.58
2019-05-14T12:25:25.903Z,5.87
2019-05-14T12:27:58.891Z,6.05
2019-05-14T12:30:29.854Z,6.00
2019-05-14T12:33:00.947Z,4.97
2019-05-14T12:35:32.111Z,4.87
2019-05-14T12:38:03.277Z,5.28
2019-05-14T12:40:34.461Z,5.90
2019-05-14T12:43:09.256Z,5.60
2019-05-14T12:45:51.530Z,4.97
2019-05-14T12:48:22.811Z,5.80
2019-05-14T12:50:53.959Z,5.15
2019-05-14T12:53:25.236Z,4.33
2019-05-14T12:55:56.392Z,4.87
2019-05-14T12:58:28.590Z,6.30
2019-05-14T13:01:00.028Z,4.67
2019-05-14T13:03:31.180Z,6.92
2019-05-14T13:06:02.432Z,3.77
2019-05-14T13:08:34.577Z,21.60
2019-05-14T13:11:18.317Z,7.72
2019-05-14T13:13:49.429Z,8.58
2019-05-14T13:16:20.919Z,6.25
2019-05-14T13:19:12.916Z,8.98
2019-05-14T13:21:44.159Z,11.25
2019-05-14T13:24:15.411Z,8.93
2019-05-14T13:26:46.417Z,12.10
2019-05-14T13:29:19.366Z,9.05
2019-05-14T13:31:50.569Z,12.37
2019-05-14T13:34:21.748Z,9.10
2019-05-14T13:36:52.960Z,10.28
2019-05-14T13:39:24.076Z,10.10
2019-05-14T13:41:55.163Z,10.43
2019-05-14T13:44:28.955Z,12.30
2019-05-14T13:46:59.777Z,12.90
2019-05-14T13:49:31.051Z,14.47
2019-05-14T13:52:02.233Z,23.12
2019-05-14T13:54:33.431Z,36.42
2019-05-14T13:57:04.647Z,34.25
2019-05-14T13:59:43.842Z,33.70
2019-05-14T14:02:09.816Z,22.10
2019-05-14T14:04:41.396Z,28.25
2019-05-14T14:07:12.896Z,62.27
2019-05-14T14:09:43.999Z,72.37
2019-05-14T14:12:15.167Z,47.00
2019-05-14T14:14:49.088Z,58.00
2019-05-14T14:17:19.456Z,51.95
2019-05-14T14:19:50.566Z,92.80
2019-05-14T14:22:21.721Z,86.95
2019-05-14T14:24:53.260Z,59.55
2019-05-14T14:27:24.547Z,61.92
2019-05-14T14:29:58.483Z,56.00
2019-05-14T14:32:29.570Z,47.80
2019-05-14T14:35:00.778Z,33.18
2019-05-14T14:37:32.076Z,31.93
2019-05-14T14:40:03.124Z,32.83
2019-05-14T14:42:35.994Z,27.87
2019-05-14T14:45:09.323Z,26.80
2019-05-14T14:47:40.640Z,32.15
2019-05-14T14:50:11.876Z,20.32
2019-05-14T14:52:43.018Z,28.70
2019-05-14T14:55:14.248Z,26.75
2019-05-14T14:57:47.913Z,30.52
2019-05-14T15:00:19.366Z,34.03
2019-05-14T15:02:51.011Z,33.13
2019-05-14T15:05:22.218Z,32.90
2019-05-14T15:07:53.561Z,27.93
2019-05-14T15:10:24.694Z,21.45
2019-05-14T15:12:58.713Z,15.45
2019-05-14T15:15:32.052Z,13.53
2019-05-14T15:18:01.800Z,12.75
2019-05-14T15:20:33.006Z,18.35
2019-05-14T15:23:04.213Z,19.07
2019-05-14T15:25:35.434Z,16.70
2019-05-14T15:28:09.231Z,16.15
2019-05-14T15:30:41.545Z,14.75
2019-05-14T15:33:12.605Z,17.92
2019-05-14T15:35:43.723Z,14.60
2019-05-14T15:38:14.818Z,15.00
2019-05-14T15:40:48.577Z,24.95
2019-05-14T15:43:18.902Z,22.25
2019-05-14T15:45:50.148Z,31.12
2019-05-14T15:48:21.294Z,31.73
2019-05-14T15:50:52.493Z,33.42
2019-05-14T15:53:23.898Z,23.62
2019-05-14T15:55:55.047Z,17.15
2019-05-14T15:58:26.259Z,19.25
2019-05-14T16:01:00.839Z,22.60
2019-05-14T16:03:30.421Z,22.15
2019-05-14T16:06:01.540Z,21.90
2019-05-14T16:08:32.740Z,13.93
2019-05-14T16:11:05.709Z,17.95
2019-05-14T16:13:39.620Z,12.68
2019-05-14T16:16:10.702Z,14.63
2019-05-14T16:18:43.077Z,15.08
2019-05-14T16:21:14.872Z,15.15
2019-05-14T16:23:45.951Z,12.40
2019-05-14T16:26:18.756Z,17.17
2019-05-14T16:28:50.138Z,19.95
2019-05-14T16:31:21.460Z,15.40
2019-05-14T16:33:52.981Z,17.27
2019-05-14T16:36:24.172Z,12.60
2019-05-14T16:38:58.253Z,13.25
2019-05-14T16:41:29.369Z,12.20
2019-05-14T16:44:00.632Z,15.98
2019-05-14T16:46:31.809Z,12.58
2019-05-14T16:49:02.978Z,16.45
2019-05-14T16:51:34.184Z,14.65
2019-05-14T16:54:05.412Z,15.08
2019-05-14T16:56:41.127Z,17.48
2019-05-14T16:59:09.649Z,20.20
2019-05-14T17:01:40.908Z,19.60
2019-05-14T17:04:12.128Z,17.82
2019-05-14T17:06:43.304Z,14.30
2019-05-14T17:09:14.608Z,17.82
2019-05-14T17:11:48.082Z,18.67
2019-05-14T17:14:20.342Z,17.48
2019-05-14T17:16:51.576Z,17.27
2019-05-14T17:19:22.814Z,37.35
2019-05-14T17:21:54.004Z,51.40
2019-05-14T17:24:28.901Z,19.25
2019-05-14T17:26:59.361Z,17.62
2019-05-14T17:29:30.583Z,14.68
2019-05-14T17:32:01.636Z,12.78
2019-05-14T17:34:32.814Z,15.35
2019-05-14T17:37:03.956Z,14.85
2019-05-14T17:39:35.128Z,12.95
2019-05-14T17:42:11.368Z,12.30
2019-05-14T17:44:40.238Z,11.85
2019-05-14T17:47:11.465Z,11.75
2019-05-14T17:49:42.658Z,12.37
2019-05-14T17:52:13.796Z,11.12
2019-05-14T17:54:44.933Z,15.93
2019-05-14T17:57:16.149Z,14.10
2019-05-14T17:59:49.619Z,14.53
2019-05-14T18:02:20.398Z,14.28
2019-05-14T18:04:51.672Z,13.60
2019-05-14T18:07:22.817Z,15.23
2019-05-14T18:09:54.130Z,16.25
2019-05-14T18:12:25.448Z,14.40
2019-05-14T18:14:58.852Z,17.50
2019-05-14T18:17:30.255Z,18.40
2019-05-14T18:20:01.410Z,17.75
2019-05-14T18:22:32.631Z,15.93
2019-05-14T18:25:04.722Z,16.73
2019-05-14T18:27:38.810Z,17.23
2019-05-14T18:30:09.537Z,18.15
2019-05-14T18:32:41.834Z,13.80
2019-05-14T18:35:13.952Z,14.75
2019-05-14T18:37:45.036Z,14.40
2019-05-14T18:40:18.216Z,28.92
2019-05-14T18:42:49.254Z,36.42
2019-05-14T18:45:20.653Z,45.45
2019-05-14T18:47:52.920Z,35.73
2019-05-14T18:50:25.073Z,33.15
2019-05-14T18:53:09.056Z,28.30
2019-05-14T18:55:41.023Z,25.82
2019-05-14T18:58:12.848Z,21.97
2019-05-14T19:00:44.037Z,21.35
2019-05-14T19:03:28.584Z,20.65
2019-05-14T19:05:59.923Z,22.37
2019-05-14T19:08:31.183Z,17.98
2019-05-14T19:11:02.295Z,17.95
2019-05-14T19:13:33.516Z,20.32
2019-05-14T19:16:04.723Z,18.40
2019-05-14T19:18:35.809Z,23.45
2019-05-14T19:21:08.788Z,18.73
2019-05-14T19:23:39.862Z,18.70
2019-05-14T19:26:11.114Z,19.20
2019-05-14T19:28:42.374Z,20.35
2019-05-14T19:31:13.502Z,18.80
2019-05-14T19:33:44.646Z,14.63
2019-05-14T19:36:18.769Z,15.53
2019-05-14T19:39:02.141Z,15.83
2019-05-14T19:41:34.400Z,13.60
2019-05-14T19:44:08.690Z,14.05
2019-05-14T19:46:39.322Z,11.43
2019-05-14T19:49:10.943Z,13.80
2019-05-14T19:51:42.528Z,30.92
2019-05-14T19:54:19.188Z,29.72
2019-05-14T19:56:56.515Z,32.25
2019-05-14T19:59:22.368Z,37.13
